Time;durP1;ratioP1;P1;durP2;ratioP2;P2;SDS_P1;SDS_P2;PMS_P1;PMS_P2;Temp;Humidity;BMP_temperature;BMP_pressure;BME280_temperature;BME280_humidity;BME280_pressure;Samples;Min_cycle;Max_cycle;Signal;HPM_P1;HPM_P2
2021/08/01 00:00:49;;;;;;;4.13;3.60;;;19.70;99.90;;;;;;6247030;28;20200;-70
2021/08/01 00:03:52;;;;;;;3.80;3.50;;;19.70;99.90;;;;;;6245811;28;20200;-70
2021/08/01 00:07:02;;;;;;;3.50;3.20;;;19.70;99.90;;;;;;6245475;28;20196;-71
2021/08/01 00:10:07;;;;;;;3.67;3.33;;;19.60;99.90;;;;;;6246775;28;20215;-69
2021/08/01 00:13:10;;;;;;;3.60;3.30;;;19.60;99.90;;;;;;6246384;28;20234;-71
2021/08/01 00:16:12;;;;;;;3.47;3.17;;;19.60;99.90;;;;;;6246511;28;20208;-70
2021/08/01 00:19:14;;;;;;;3.90;3.40;;;19.60;99.90;;;;;;6261837;28;20198;-71
2021/08/01 00:22:17;;;;;;;3.23;2.97;;;19.60;99.90;;;;;;6245284;28;20258;-71
2021/08/01 00:25:20;;;;;;;3.43;3.13;;;19.60;99.90;;;;;;6245323;28;20200;-70
2021/08/01 00:28:22;;;;;;;4.33;3.80;;;19.50;99.90;;;;;;6246162;28;20568;-71
2021/08/01 00:31:24;;;;;;;4.80;3.80;;;19.50;99.90;;;;;;6246302;28;20612;-71
2021/08/01 00:34:27;;;;;;;3.57;3.27;;;19.40;99.90;;;;;;6245019;28;20192;-71
2021/08/01 00:37:31;;;;;;;3.60;3.30;;;19.40;99.90;;;;;;6245992;28;20321;-70
2021/08/01 00:40:33;;;;;;;3.43;3.00;;;19.30;99.90;;;;;;6244901;28;20195;-70
2021/08/01 00:43:36;;;;;;;3.60;3.30;;;19.20;99.90;;;;;;6260960;28;20214;-71
2021/08/01 00:46:44;;;;;;;3.50;3.03;;;19.10;99.90;;;;;;6244702;28;20208;-72
2021/08/01 00:49:46;;;;;;;4.10;2.90;;;19.10;99.90;;;;;;6245756;28;20196;-70
2021/08/01 00:52:51;;;;;;;3.73;3.00;;;19.00;99.90;;;;;;6244755;28;20282;-71
2021/08/01 00:55:54;;;;;;;4.90;3.20;;;19.00;99.90;;;;;;6245847;28;20196;-70
2021/08/01 00:58:57;;;;;;;3.30;3.00;;;19.00;99.90;;;;;;6245696;28;20219;-71
2021/08/01 01:02:16;;;;;;;4.13;3.03;;;19.00;99.90;;;;;;6245748;28;20203;-72
2021/08/01 01:05:31;;;;;;;3.87;3.40;;;19.00;99.90;;;;;;6244420;28;20204;-71
2021/08/01 01:08:48;;;;;;;3.17;2.97;;;19.00;99.90;;;;;;6244219;28;20263;-71
2021/08/01 01:12:15;;;;;;;4.20;2.93;;;19.00;99.90;;;;;;6245592;28;20238;-70
2021/08/01 01:15:24;;;;;;;3.50;3.20;;;18.90;99.90;;;;;;6245365;28;20236;-71
2021/08/01 01:18:39;;;;;;;3.40;3.10;;;18.90;99.90;;;;;;6245239;28;20211;-70
2021/08/01 01:21:54;;;;;;;2.87;2.67;;;18.90;99.90;;;;;;6236372;28;20276;-71
2021/08/01 01:24:58;;;;;;;3.30;3.10;;;18.90;99.90;;;;;;6243467;28;20557;-71
2021/08/01 01:28:38;;;;;;;3.40;3.10;;;18.90;99.90;;;;;;6244305;28;20196;-70
2021/08/01 01:31:59;;;;;;;3.50;2.93;;;18.90;99.90;;;;;;6247284;28;20211;-71
2021/08/01 01:35:11;;;;;;;4.07;2.73;;;18.90;99.90;;;;;;6245161;28;20588;-70
2021/08/01 01:38:20;;;;;;;3.50;3.20;;;18.90;99.90;;;;;;6243800;28;20219;-70
2021/08/01 01:41:47;;;;;;;3.50;3.20;;;18.90;99.90;;;;;;6245387;28;20574;-70
2021/08/01 01:44:53;;;;;;;3.43;3.13;;;18.90;99.90;;;;;;6260676;28;20262;-70
2021/08/01 01:47:59;;;;;;;3.60;3.30;;;18.90;99.90;;;;;;6243919;28;20559;-71
2021/08/01 01:51:01;;;;;;;3.03;2.73;;;18.90;99.90;;;;;;6244977;28;20192;-72
2021/08/01 01:54:09;;;;;;;3.80;2.87;;;18.90;99.90;;;;;;6243936;28;20196;-70
2021/08/01 01:57:12;;;;;;;3.23;2.93;;;18.80;99.90;;;;;;6246570;28;20684;-71
2021/08/01 02:00:15;;;;;;;3.70;3.03;;;18.70;99.90;;;;;;6249738;28;20202;-70
2021/08/01 02:03:21;;;;;;;4.20;3.10;;;18.70;99.90;;;;;;6248397;28;20169;-71
2021/08/01 02:06:42;;;;;;;3.50;3.20;;;18.70;99.90;;;;;;6250033;28;20189;-70
2021/08/01 02:10:13;;;;;;;6.30;3.47;;;18.70;99.90;;;;;;6248673;28;20734;-71
2021/08/01 02:13:22;;;;;;;3.50;3.20;;;18.70;99.90;;;;;;6249286;28;20232;-71
2021/08/01 02:16:33;;;;;;;3.40;3.07;;;18.70;99.90;;;;;;6249270;28;20663;-71
2021/08/01 02:19:41;;;;;;;3.33;2.80;;;18.70;99.90;;;;;;6249136;28;20185;-73
2021/08/01 02:22:47;;;;;;;3.57;3.27;;;18.70;99.90;;;;;;6264297;28;20187;-70
2021/08/01 02:25:52;;;;;;;2.97;2.77;;;18.70;99.90;;;;;;6264403;28;20192;-71
2021/08/01 02:28:57;;;;;;;3.73;3.20;;;18.60;99.90;;;;;;6239952;28;20209;-71
2021/08/01 02:32:00;;;;;;;4.07;3.70;;;18.60;99.90;;;;;;6246399;28;20203;-72
2021/08/01 02:35:08;;;;;;;4.17;3.40;;;18.60;99.90;;;;;;6264416;28;20220;-70
2021/08/01 02:38:12;;;;;;;3.53;3.23;;;18.60;99.90;;;;;;6247592;28;20207;-72
2021/08/01 02:41:36;;;;;;;4.27;3.20;;;18.60;99.90;;;;;;6249056;28;20192;-71
2021/08/01 02:44:44;;;;;;;6.53;3.73;;;18.60;99.90;;;;;;6248970;28;20238;-70
2021/08/01 02:47:49;;;;;;;3.73;3.37;;;18.70;99.90;;;;;;6247479;28;20603;-69
2021/08/01 02:51:00;;;;;;;4.80;3.80;;;18.70;99.90;;;;;;6248436;28;20218;-70
2021/08/01 02:54:04;;;;;;;4.13;3.67;;;18.70;99.90;;;;;;6263935;28;20197;-71
2021/08/01 02:57:11;;;;;;;3.97;3.27;;;18.60;99.90;;;;;;6263753;28;20866;-70
2021/08/01 03:00:14;;;;;;;4.10;2.87;;;18.60;99.90;;;;;;6247223;28;20197;-71
2021/08/01 03:03:18;;;;;;;4.73;3.40;;;18.60;99.90;;;;;;6247204;28;20200;-69
2021/08/01 03:06:22;;;;;;;4.83;4.33;;;18.60;99.90;;;;;;6247007;28;20200;-70
2021/08/01 03:09:25;;;;;;;4.90;3.60;;;18.70;99.90;;;;;;6246873;28;20189;-70
2021/08/01 03:12:28;;;;;;;5.40;3.47;;;18.70;99.90;;;;;;6246850;28;20204;-71
2021/08/01 03:15:31;;;;;;;3.90;3.50;;;18.70;99.90;;;;;;6246841;28;20224;-70
2021/08/01 03:18:34;;;;;;;4.47;4.07;;;18.70;99.90;;;;;;6246435;28;20294;-71
2021/08/01 03:21:36;;;;;;;4.23;3.50;;;18.80;99.90;;;;;;6248043;28;20543;-70
2021/08/01 03:24:46;;;;;;;6.77;4.33;;;18.80;99.90;;;;;;6246446;28;20192;-69
2021/08/01 03:27:51;;;;;;;4.33;3.73;;;18.80;99.90;;;;;;6247852;28;20307;-70
2021/08/01 03:30:53;;;;;;;6.97;3.43;;;18.80;99.90;;;;;;6247698;28;20211;-70
2021/08/01 03:33:56;;;;;;;4.37;3.30;;;18.80;99.90;;;;;;6247786;28;20196;-70
2021/08/01 03:37:05;;;;;;;3.97;3.57;;;18.80;99.90;;;;;;6245998;28;20572;-70
2021/08/01 03:40:26;;;;;;;3.80;3.20;;;18.80;99.90;;;;;;6247588;28;20638;-70
2021/08/01 03:43:28;;;;;;;3.77;3.47;;;18.80;99.90;;;;;;6262856;28;20322;-70
2021/08/01 03:46:31;;;;;;;2.53;2.20;;;18.80;99.90;;;;;;6246168;28;20200;-70
2021/08/01 03:49:33;;;;;;;3.10;2.60;;;18.70;99.90;;;;;;6246022;28;20559;-71
2021/08/01 03:52:36;;;;;;;3.67;2.17;;;18.80;99.90;;;;;;6262502;28;20207;-71
2021/08/01 03:55:39;;;;;;;2.30;2.10;;;18.80;99.90;;;;;;6246486;28;20673;-71
2021/08/01 03:58:41;;;;;;;2.10;2.00;;;18.80;99.90;;;;;;6246856;28;20302;-70
2021/08/01 04:01:43;;;;;;;2.60;2.20;;;18.70;99.90;;;;;;6262100;28;20203;-70
2021/08/01 04:04:46;;;;;;;4.63;1.90;;;18.70;99.90;;;;;;6245540;28;20199;-70
2021/08/01 04:07:48;;;;;;;3.23;1.80;;;18.80;99.90;;;;;;6245518;28;20191;-70
2021/08/01 04:10:50;;;;;;;3.23;2.17;;;18.80;99.90;;;;;;6245431;28;20257;-71
2021/08/01 04:13:53;;;;;;;2.00;1.90;;;18.80;99.90;;;;;;6246331;28;20569;-71
2021/08/01 04:16:55;;;;;;;2.00;1.80;;;18.90;99.90;;;;;;6245113;28;20235;-70
2021/08/01 04:19:57;;;;;;;2.00;1.90;;;18.90;99.90;;;;;;6244307;28;20195;-71
2021/08/01 04:23:00;;;;;;;2.00;1.90;;;18.90;99.90;;;;;;6245652;28;20667;-72
2021/08/01 04:26:07;;;;;;;2.20;1.80;;;18.90;99.90;;;;;;6245247;28;20598;-70
2021/08/01 04:29:09;;;;;;;2.10;1.90;;;18.90;99.90;;;;;;6261311;28;20188;-71
2021/08/01 04:32:11;;;;;;;4.87;2.47;;;19.00;99.90;;;;;;6246305;28;20540;-70
2021/08/01 04:35:14;;;;;;;2.80;1.90;;;19.00;99.90;;;;;;6244811;28;20576;-72
2021/08/01 04:38:16;;;;;;;2.27;2.10;;;19.10;99.90;;;;;;6244986;28;20692;-70
2021/08/01 04:41:18;;;;;;;2.47;2.00;;;19.10;99.90;;;;;;6246177;28;20208;-71
2021/08/01 04:44:21;;;;;;;1.97;1.87;;;19.00;99.90;;;;;;6245933;28;20246;-71
2021/08/01 04:47:23;;;;;;;2.57;2.37;;;19.00;99.90;;;;;;6244633;28;20699;-71
2021/08/01 04:50:25;;;;;;;2.60;2.40;;;19.00;99.90;;;;;;6244435;28;20192;-70
2021/08/01 04:53:28;;;;;;;2.60;2.40;;;19.00;99.90;;;;;;6261076;28;20678;-70
2021/08/01 04:56:30;;;;;;;2.67;2.20;;;19.00;99.90;;;;;;6244618;28;20195;-70
2021/08/01 04:59:36;;;;;;;2.60;2.40;;;19.00;99.90;;;;;;6244221;28;20215;-71
2021/08/01 05:02:38;;;;;;;6.90;2.40;;;19.10;99.90;;;;;;6244598;28;20188;-72
2021/08/01 05:05:42;;;;;;;2.47;2.27;;;19.10;99.90;;;;;;6244390;28;20199;-70
2021/08/01 05:08:44;;;;;;;2.30;2.10;;;19.10;99.90;;;;;;6245442;28;20302;-70
2021/08/01 05:11:46;;;;;;;2.17;1.90;;;19.00;99.90;;;;;;6245336;28;20237;-70
2021/08/01 05:14:49;;;;;;;1.87;1.77;;;19.00;99.90;;;;;;6260544;28;20231;-71
2021/08/01 05:17:51;;;;;;;2.40;2.20;;;19.10;99.90;;;;;;6245306;28;20714;-70
2021/08/01 05:20:54;;;;;;;2.40;1.80;;;19.20;99.90;;;;;;6245316;28;20203;-70
2021/08/01 05:23:56;;;;;;;1.90;1.80;;;19.20;99.90;;;;;;6245454;28;20184;-71
2021/08/01 05:26:58;;;;;;;2.50;2.03;;;19.30;99.90;;;;;;6244155;28;20199;-70
2021/08/01 05:30:01;;;;;;;4.03;2.00;;;19.40;99.90;;;;;;6244833;28;20204;-72
2021/08/01 05:33:05;;;;;;;1.60;1.50;;;19.50;99.90;;;;;;6265930;28;20565;-70
2021/08/01 05:36:09;;;;;;;2.13;1.93;;;19.50;99.90;;;;;;6250279;28;20290;-71
2021/08/01 05:39:11;;;;;;;4.87;2.00;;;19.50;99.90;;;;;;6250096;28;20233;-70
2021/08/01 05:42:15;;;;;;;2.40;2.20;;;19.60;99.90;;;;;;6250071;28;20601;-70
2021/08/01 05:45:17;;;;;;;5.67;1.80;;;19.50;99.90;;;;;;6249015;28;20199;-70
2021/08/01 05:48:20;;;;;;;1.73;1.63;;;19.40;99.90;;;;;;6248988;28;20203;-70
2021/08/01 05:51:22;;;;;;;1.70;1.60;;;19.30;99.90;;;;;;6249994;28;20203;-70
2021/08/01 05:54:24;;;;;;;1.67;1.47;;;19.20;99.90;;;;;;6248767;28;20196;-70
2021/08/01 05:57:27;;;;;;;2.00;1.80;;;19.20;99.90;;;;;;6265112;28;20224;-70
2021/08/01 06:00:29;;;;;;;1.67;1.53;;;19.10;99.90;;;;;;6248597;28;20334;-71
2021/08/01 06:03:32;;;;;;;1.73;1.30;;;19.10;99.90;;;;;;6264872;28;20206;-69
2021/08/01 06:06:34;;;;;;;1.60;1.50;;;19.10;99.90;;;;;;6264879;28;20196;-70
2021/08/01 06:09:40;;;;;;;2.17;1.83;;;19.20;99.90;;;;;;6247874;28;20289;-67
2021/08/01 06:12:42;;;;;;;1.43;1.33;;;19.20;99.90;;;;;;6248200;28;20200;-70
2021/08/01 06:15:45;;;;;;;2.17;1.97;;;19.30;99.90;;;;;;6249025;28;20273;-70
2021/08/01 06:18:47;;;;;;;3.57;1.80;;;19.40;99.90;;;;;;6249262;28;20686;-71
2021/08/01 06:21:50;;;;;;;3.43;1.83;;;19.50;99.90;;;;;;6247993;28;20592;-70
2021/08/01 06:24:53;;;;;;;3.30;1.50;;;19.60;99.90;;;;;;6247760;28;20279;-70
2021/08/01 06:27:55;;;;;;;1.50;1.37;;;19.70;99.90;;;;;;6249176;28;20200;-72
2021/08/01 06:31:00;;;;;;;2.50;1.90;;;19.80;99.90;;;;;;6247241;28;20250;-70
2021/08/01 06:34:02;;;;;;;3.63;2.00;;;19.80;99.90;;;;;;6247660;28;20201;-69
2021/08/01 06:37:05;;;;;;;3.87;1.70;;;19.80;99.90;;;;;;6247127;28;20251;-70
2021/08/01 06:40:10;;;;;;;5.20;1.90;;;19.80;99.90;;;;;;6248381;28;20219;-69
2021/08/01 06:43:13;;;;;;;3.03;2.00;;;19.90;99.90;;;;;;6246657;28;20188;-70
2021/08/01 06:46:15;;;;;;;5.23;1.77;;;19.90;99.90;;;;;;6248503;28;20188;-69
2021/08/01 06:49:18;;;;;;;3.00;2.00;;;20.00;99.90;;;;;;6263548;28;20383;-70
2021/08/01 06:52:41;;;;;;;1.73;1.63;;;20.10;99.90;;;;;;6247447;28;20254;-69
2021/08/01 06:55:43;;;;;;;2.30;2.10;;;20.10;99.90;;;;;;6263656;28;20573;-72
2021/08/01 06:58:46;;;;;;;2.10;1.97;;;20.10;99.90;;;;;;6248130;28;20222;-71
2021/08/01 07:01:48;;;;;;;1.83;1.73;;;20.20;99.90;;;;;;6248164;28;20195;-70
2021/08/01 07:04:50;;;;;;;1.87;1.60;;;20.40;99.90;;;;;;6247103;28;20202;-71
2021/08/01 07:07:55;;;;;;;3.97;1.87;;;20.60;99.90;;;;;;6248021;28;20665;-70
2021/08/01 07:10:57;;;;;;;3.60;2.00;;;20.70;99.90;;;;;;6245786;28;20231;-70
2021/08/01 07:13:59;;;;;;;4.40;2.00;;;20.80;99.90;;;;;;6263138;28;20235;-71
2021/08/01 07:17:03;;;;;;;2.50;1.97;;;20.80;99.90;;;;;;6247692;28;20594;-70
2021/08/01 07:20:08;;;;;;;2.37;1.70;;;20.80;99.90;;;;;;6263117;28;20252;-71
2021/08/01 07:23:10;;;;;;;2.33;1.90;;;20.70;99.90;;;;;;6262792;28;20192;-70
2021/08/01 07:26:12;;;;;;;1.90;1.80;;;20.70;99.90;;;;;;6247698;28;20557;-69
2021/08/01 07:29:15;;;;;;;2.23;2.03;;;20.60;99.90;;;;;;6247574;28;20196;-71
2021/08/01 07:32:17;;;;;;;1.93;1.73;;;20.50;99.90;;;;;;6246370;28;20191;-70
2021/08/01 07:35:19;;;;;;;2.80;1.70;;;20.50;99.90;;;;;;6247531;28;20306;-68
2021/08/01 07:38:22;;;;;;;2.20;2.00;;;20.40;99.90;;;;;;6247370;28;20223;-69
2021/08/01 07:41:24;;;;;;;2.50;2.30;;;20.40;99.90;;;;;;6245837;28;20200;-68
2021/08/01 07:44:29;;;;;;;4.67;2.20;;;20.30;99.90;;;;;;6246014;28;20192;-70
2021/08/01 07:47:34;;;;;;;2.97;2.47;;;20.20;99.90;;;;;;6262704;28;20208;-71
2021/08/01 07:50:37;;;;;;;4.03;2.50;;;20.10;99.90;;;;;;6262010;28;20192;-71
2021/08/01 07:53:39;;;;;;;3.47;2.40;;;20.10;99.90;;;;;;6244879;28;20200;-70
2021/08/01 07:56:41;;;;;;;2.70;2.50;;;20.00;99.90;;;;;;6245829;28;20204;-71
2021/08/01 07:59:43;;;;;;;3.43;2.63;;;19.90;99.90;;;;;;6246841;28;20297;-70
2021/08/01 08:02:46;;;;;;;3.50;2.50;;;19.80;99.90;;;;;;6246359;28;20564;-71
2021/08/01 08:05:51;;;;;;;4.97;2.70;;;19.70;99.90;;;;;;6246799;28;20322;-71
2021/08/01 08:08:54;;;;;;;2.53;2.33;;;19.70;99.90;;;;;;6245557;28;20200;-71
2021/08/01 08:11:56;;;;;;;2.53;2.33;;;19.60;99.90;;;;;;6245176;28;20200;-70
2021/08/01 08:14:58;;;;;;;4.03;2.53;;;19.60;99.90;;;;;;6244905;28;20232;-70
2021/08/01 08:18:01;;;;;;;2.70;2.50;;;19.60;99.90;;;;;;6244998;28;20707;-71
2021/08/01 08:21:03;;;;;;;2.97;2.77;;;19.60;99.90;;;;;;6245808;28;20192;-69
2021/08/01 08:24:05;;;;;;;2.60;2.17;;;19.60;99.90;;;;;;6245340;28;20192;-70
2021/08/01 08:27:07;;;;;;;2.50;2.30;;;19.50;99.90;;;;;;6246214;28;20327;-70
2021/08/01 08:30:11;;;;;;;2.90;2.43;;;19.60;99.90;;;;;;6245916;28;20330;-70
2021/08/01 08:33:13;;;;;;;4.10;2.90;;;19.60;99.90;;;;;;6245338;28;20690;-70
2021/08/01 08:36:16;;;;;;;3.13;2.83;;;19.60;99.90;;;;;;6246234;28;20290;-70
2021/08/01 08:39:20;;;;;;;3.17;2.83;;;19.70;99.90;;;;;;6245978;28;20582;-71
2021/08/01 08:42:23;;;;;;;4.03;3.60;;;19.70;99.90;;;;;;6246341;28;20223;-70
2021/08/01 08:45:25;;;;;;;4.80;3.47;;;19.80;99.90;;;;;;6245134;28;20192;-71
2021/08/01 08:48:32;;;;;;;3.50;3.17;;;19.80;99.90;;;;;;6244756;28;20192;-71
2021/08/01 08:51:37;;;;;;;6.90;3.70;;;19.90;99.90;;;;;;6245856;28;20731;-70
2021/08/01 08:54:49;;;;;;;3.97;3.47;;;20.10;99.90;;;;;;6246036;28;20901;-72
2021/08/01 08:57:56;;;;;;;4.10;3.70;;;20.40;99.90;;;;;;6244473;28;20636;-71
2021/08/01 09:01:04;;;;;;;3.90;3.27;;;20.70;99.90;;;;;;6246375;28;20578;-72
2021/08/01 09:04:07;;;;;;;3.77;3.23;;;21.00;99.90;;;;;;6244477;28;20662;-71
2021/08/01 09:07:09;;;;;;;2.80;2.57;;;21.30;99.90;;;;;;6245297;28;20570;-71
2021/08/01 09:10:12;;;;;;;4.20;3.70;;;21.60;99.90;;;;;;6245557;28;20227;-69
2021/08/01 09:13:48;;;;;;;6.07;3.77;;;21.90;99.90;;;;;;6245388;28;20239;-71
2021/08/01 09:16:52;;;;;;;3.23;3.03;;;22.00;99.90;;;;;;6234790;28;20286;-70
2021/08/01 09:20:12;;;;;;;3.57;3.20;;;22.10;99.90;;;;;;6245317;28;20211;-70
2021/08/01 09:23:14;;;;;;;3.60;3.30;;;22.30;99.90;;;;;;6246364;28;20181;-69
2021/08/01 09:26:16;;;;;;;3.80;3.40;;;22.40;99.90;;;;;;6244136;28;20204;-69
2021/08/01 09:29:19;;;;;;;3.37;2.80;;;22.40;99.90;;;;;;6244134;28;20199;-69
2021/08/01 09:32:24;;;;;;;4.97;3.80;;;22.40;99.90;;;;;;6245294;28;20211;-69
2021/08/01 09:35:26;;;;;;;4.03;3.63;;;22.50;99.90;;;;;;6244018;28;20223;-69
2021/08/01 09:38:43;;;;;;;5.00;3.43;;;22.50;99.90;;;;;;6244087;28;20212;-70
2021/08/01 09:41:45;;;;;;;4.20;3.50;;;22.40;99.90;;;;;;6244173;28;20330;-70
2021/08/01 09:44:48;;;;;;;5.30;3.27;;;22.30;99.90;;;;;;6260868;28;20191;-68
2021/08/01 09:47:50;;;;;;;3.70;3.40;;;22.20;99.90;;;;;;6243871;28;20698;-70
2021/08/01 09:51:07;;;;;;;3.50;3.20;;;22.10;99.90;;;;;;6243815;28;20223;-70
2021/08/01 09:54:10;;;;;;;4.27;3.87;;;22.00;99.90;;;;;;6245464;28;20196;-70
2021/08/01 09:57:20;;;;;;;4.17;3.30;;;21.90;99.90;;;;;;6245260;28;20192;-70
2021/08/01 10:00:23;;;;;;;3.60;3.30;;;21.80;99.90;;;;;;6260313;28;20256;-70
2021/08/01 10:03:43;;;;;;;3.70;3.40;;;21.80;99.90;;;;;;6245269;28;20541;-70
2021/08/01 10:07:02;;;;;;;4.33;3.90;;;21.80;99.90;;;;;;6245507;28;20298;-70
2021/08/01 10:10:16;;;;;;;6.57;4.37;;;21.80;99.90;;;;;;6244010;28;20197;-71
2021/08/01 10:13:23;;;;;;;4.07;3.67;;;21.80;99.90;;;;;;6243346;28;20236;-71
2021/08/01 10:16:26;;;;;;;5.20;3.80;;;22.00;99.90;;;;;;6259688;28;20204;-70
2021/08/01 10:19:28;;;;;;;6.10;3.80;;;22.10;99.90;;;;;;6249231;28;20290;-71
2021/08/01 10:22:32;;;;;;;4.77;3.80;;;22.20;99.90;;;;;;6249806;28;20207;-70
2021/08/01 10:25:36;;;;;;;3.60;3.30;;;22.40;99.90;;;;;;6249680;28;20224;-70
2021/08/01 10:28:57;;;;;;;4.10;3.33;;;22.50;99.90;;;;;;6249157;28;20611;-70
2021/08/01 10:32:10;;;;;;;4.50;3.30;;;23.00;99.90;;;;;;6247606;28;20330;-70
2021/08/01 10:35:21;;;;;;;3.87;3.30;;;23.40;99.90;;;;;;6247696;28;20313;-70
2021/08/01 10:38:25;;;;;;;3.83;3.53;;;23.80;99.90;;;;;;6247387;28;20302;-70
2021/08/01 10:41:31;;;;;;;3.67;2.87;;;24.30;99.90;;;;;;6263978;28;20226;-69
2021/08/01 10:44:35;;;;;;;5.50;3.33;;;24.90;99.90;;;;;;6248632;28;20195;-70
2021/08/01 10:47:44;;;;;;;6.03;3.42;;;25.60;99.90;;;;;;6248450;28;20261;-71
2021/08/01 10:50:49;;;;;;;4.10;2.90;;;26.10;99.90;;;;;;6248387;28;20652;-70
2021/08/01 10:53:52;;;;;;;3.88;3.20;;;26.50;99.90;;;;;;6247226;28;20648;-71
2021/08/01 10:57:17;;;;;;;3.20;2.88;;;26.80;99.90;;;;;;6248548;28;20729;-71
2021/08/01 11:00:20;;;;;;;4.05;2.83;;;26.90;99.90;;;;;;6246730;28;20216;-70
2021/08/01 11:03:23;;;;;;;5.10;2.88;;;26.80;99.90;;;;;;6246988;28;20310;-71
2021/08/01 11:06:43;;;;;;;4.80;3.10;;;26.60;99.90;;;;;;6248201;28;20196;-71
2021/08/01 11:10:05;;;;;;;3.38;2.45;;;26.30;99.90;;;;;;6246671;28;20261;-70
2021/08/01 11:13:29;;;;;;;3.03;2.72;;;25.90;99.90;;;;;;6246588;28;20232;-70
2021/08/01 11:16:31;;;;;;;2.30;2.10;;;25.60;99.90;;;;;;6248014;28;20563;-70
2021/08/01 11:19:34;;;;;;;4.00;2.35;;;25.40;99.90;;;;;;6246464;28;20231;-70
2021/08/01 11:22:40;;;;;;;6.85;3.17;;;25.20;99.90;;;;;;6246785;28;20301;-71
2021/08/01 11:26:06;;;;;;;3.85;2.20;;;25.10;99.90;;;;;;6246345;28;20196;-72
2021/08/01 11:29:10;;;;;;;2.97;2.53;;;25.00;99.90;;;;;;6262582;28;20557;-71
2021/08/01 11:32:13;;;;;;;3.22;2.92;;;25.00;99.90;;;;;;6262946;28;20196;-71
2021/08/01 11:35:21;;;;;;;2.63;2.42;;;24.90;99.90;;;;;;6246488;28;20291;-71
2021/08/01 11:38:27;;;;;;;2.60;2.40;;;24.90;99.90;;;;;;6247485;28;20175;-70
2021/08/01 11:44:58;;;;;;;4.27;2.40;;;24.80;99.90;;;;;;6247714;28;20215;-71
2021/08/01 11:48:01;;;;;;;4.68;2.78;;;24.90;99.90;;;;;;6245842;28;20204;-71
2021/08/01 11:51:07;;;;;;;2.35;2.25;;;24.90;99.90;;;;;;6247553;28;20266;-72
2021/08/01 11:54:13;;;;;;;4.22;2.47;;;24.90;99.90;;;;;;6245632;28;20207;-73
2021/08/01 11:57:15;;;;;;;2.60;2.40;;;24.70;99.90;;;;;;6245951;28;20199;-71
2021/08/01 12:00:24;;;;;;;3.50;2.50;;;24.50;99.90;;;;;;6246620;28;20207;-71
2021/08/01 12:03:28;;;;;;;2.53;2.33;;;24.40;99.90;;;;;;6246107;28;20188;-71
2021/08/01 12:06:31;;;;;;;2.97;2.67;;;24.20;99.90;;;;;;6246892;28;20196;-70
2021/08/01 12:09:39;;;;;;;2.53;2.30;;;24.10;99.90;;;;;;6262051;28;20567;-71
2021/08/01 12:12:41;;;;;;;3.53;1.90;;;23.90;99.90;;;;;;6245503;28;20196;-71
2021/08/01 12:15:44;;;;;;;1.87;1.77;;;23.70;99.90;;;;;;6245069;28;20239;-73
2021/08/01 12:18:46;;;;;;;3.63;1.60;;;23.50;99.90;;;;;;6245223;28;20390;-71
2021/08/01 12:21:52;;;;;;;1.07;1.00;;;23.20;99.90;;;;;;6245005;28;20329;-70
2021/08/01 12:24:56;;;;;;;1.10;1.00;;;22.90;99.90;;;;;;6246499;28;20559;-71
2021/08/01 12:27:58;;;;;;;0.80;0.80;;;22.60;99.90;;;;;;6261314;28;20196;-70
2021/08/01 12:31:01;;;;;;;1.10;1.00;;;22.30;99.90;;;;;;6245902;28;20191;-70
2021/08/01 12:34:03;;;;;;;3.17;1.20;;;22.00;99.90;;;;;;6262228;28;20303;-72
2021/08/01 12:37:05;;;;;;;2.50;1.33;;;22.10;99.90;;;;;;6245072;28;20746;-70
2021/08/01 12:40:08;;;;;;;1.10;1.00;;;21.90;99.90;;;;;;6244037;28;20294;-71
2021/08/01 12:43:14;;;;;;;3.80;1.00;;;21.80;99.90;;;;;;6244509;28;20198;-71
2021/08/01 12:46:20;;;;;;;1.37;0.50;;;21.70;99.90;;;;;;6244566;28;20196;-70
2021/08/01 12:49:23;;;;;;;1.03;0.70;;;21.40;99.90;;;;;;6244671;28;20203;-70
2021/08/01 12:52:26;;;;;;;0.83;0.70;;;21.10;99.90;;;;;;6244326;28;20200;-71
2021/08/01 12:55:29;;;;;;;1.30;0.60;;;21.10;99.90;;;;;;6260821;28;20304;-71
2021/08/01 12:58:36;;;;;;;0.70;0.70;;;21.00;99.90;;;;;;6245746;28;20273;-70
2021/08/01 13:01:40;;;;;;;2.57;0.70;;;20.70;99.90;;;;;;6245932;28;20533;-72
2021/08/01 13:04:45;;;;;;;1.77;0.90;;;20.50;99.90;;;;;;6245191;28;20269;-72
2021/08/01 13:07:48;;;;;;;0.60;0.60;;;20.30;99.90;;;;;;6244959;28;20212;-68
2021/08/01 13:10:50;;;;;;;0.80;0.70;;;20.00;99.90;;;;;;6244474;28;20215;-70
2021/08/01 13:13:54;;;;;;;1.67;1.00;;;19.70;99.90;;;;;;6244153;28;20601;-71
2021/08/01 13:16:57;;;;;;;2.40;0.90;;;19.50;99.90;;;;;;6244175;28;20207;-69
2021/08/01 13:19:59;;;;;;;1.13;0.97;;;19.20;99.90;;;;;;6245342;28;20269;-69
2021/08/01 13:23:21;;;;;;;1.00;0.90;;;19.00;99.90;;;;;;6245874;28;20200;-70
2021/08/01 13:26:31;;;;;;;4.00;1.60;;;18.90;99.90;;;;;;6244405;28;20208;-71
2021/08/01 13:29:34;;;;;;;5.67;2.00;;;18.90;99.90;;;;;;6244058;28;20207;-68
2021/08/01 13:32:40;;;;;;;3.23;1.57;;;18.80;99.90;;;;;;6245505;28;20184;-69
2021/08/01 13:35:51;;;;;;;3.57;1.30;;;18.70;99.90;;;;;;6244390;28;20270;-67
2021/08/01 13:39:00;;;;;;;1.83;1.40;;;18.60;99.90;;;;;;6244066;28;20180;-68
2021/08/01 13:42:11;;;;;;;4.00;1.50;;;18.40;99.90;;;;;;6243889;28;20196;-69
2021/08/01 13:45:15;;;;;;;2.10;1.70;;;18.30;99.90;;;;;;6243861;28;20193;-71
2021/08/01 13:48:18;;;;;;;2.37;1.60;;;18.00;99.90;;;;;;6243510;28;20279;-69
2021/08/01 13:51:20;;;;;;;2.80;1.30;;;17.90;99.90;;;;;;6245186;28;20192;-68
2021/08/01 13:54:27;;;;;;;2.90;1.60;;;17.90;99.90;;;;;;6248797;28;20191;-68
2021/08/01 13:57:29;;;;;;;1.90;1.70;;;17.80;99.90;;;;;;6248781;28;20544;-68
2021/08/01 14:00:32;;;;;;;2.60;1.50;;;17.60;99.90;;;;;;6249611;28;20215;-70
2021/08/01 14:03:37;;;;;;;4.43;1.73;;;17.50;99.90;;;;;;6249912;28;20191;-69
2021/08/01 14:06:40;;;;;;;3.00;1.40;;;17.50;99.90;;;;;;6248748;28;20262;-70
2021/08/01 14:09:42;;;;;;;4.60;1.60;;;17.40;99.90;;;;;;6248004;28;20565;-70
2021/08/01 14:12:44;;;;;;;3.03;1.40;;;17.40;99.90;;;;;;6247967;28;20270;-69
2021/08/01 14:15:47;;;;;;;1.77;1.67;;;17.30;99.90;;;;;;6264334;28;20223;-69
2021/08/01 14:18:49;;;;;;;2.10;1.53;;;17.30;99.90;;;;;;6265343;28;20274;-67
2021/08/01 14:21:52;;;;;;;1.67;1.57;;;17.20;99.90;;;;;;6248033;28;20208;-69
2021/08/01 14:24:54;;;;;;;1.87;1.37;;;17.10;99.90;;;;;;6249330;28;20318;-69
2021/08/01 14:27:57;;;;;;;1.43;1.33;;;16.90;99.90;;;;;;6248108;28;20184;-69
2021/08/01 14:31:00;;;;;;;1.60;1.50;;;16.90;99.90;;;;;;6248653;28;20666;-71
2021/08/01 14:34:02;;;;;;;1.53;1.43;;;16.80;99.90;;;;;;6264431;28;20287;-69
2021/08/01 14:37:05;;;;;;;1.83;1.73;;;16.80;99.90;;;;;;6248686;28;20227;-71
2021/08/01 14:40:08;;;;;;;1.60;1.50;;;16.80;99.90;;;;;;6264036;28;20218;-70
2021/08/01 14:43:13;;;;;;;1.50;1.40;;;16.80;99.90;;;;;;6247497;28;20725;-69
2021/08/01 14:46:16;;;;;;;3.70;1.37;;;16.80;99.90;;;;;;6247416;28;20195;-69
2021/08/01 14:49:25;;;;;;;1.90;1.47;;;16.90;99.90;;;;;;6248665;28;20180;-69
2021/08/01 14:55:58;;;;;;;1.70;1.50;;;16.90;99.90;;;;;;6248465;28;20188;-71
2021/08/01 14:59:05;;;;;;;2.00;1.20;;;17.00;99.90;;;;;;6248531;28;20199;-70
2021/08/01 15:02:22;;;;;;;3.40;1.40;;;17.00;99.90;;;;;;6246948;28;20691;-69
2021/08/01 15:05:36;;;;;;;3.23;1.57;;;17.00;99.90;;;;;;6247182;28;20682;-69
2021/08/01 15:09:07;;;;;;;2.07;1.10;;;17.00;99.90;;;;;;6248304;28;20231;-69
2021/08/01 15:12:14;;;;;;;1.97;1.13;;;16.90;99.90;;;;;;6246881;28;20640;-68
2021/08/01 15:15:20;;;;;;;2.03;1.10;;;16.90;99.90;;;;;;6247840;28;20289;-67
2021/08/01 15:18:25;;;;;;;1.87;1.20;;;16.90;99.90;;;;;;6246950;28;20196;-68
2021/08/01 15:21:31;;;;;;;2.20;1.20;;;16.90;99.90;;;;;;6246475;28;20305;-68
2021/08/01 15:24:46;;;;;;;1.20;1.10;;;16.90;99.90;;;;;;6247534;28;20278;-69
2021/08/01 15:27:49;;;;;;;1.73;1.63;;;17.00;99.90;;;;;;6246435;28;20644;-69
2021/08/01 15:30:52;;;;;;;1.40;1.30;;;17.10;99.90;;;;;;6262536;28;20219;-70
2021/08/01 15:33:56;;;;;;;1.70;1.53;;;17.20;99.90;;;;;;6247555;28;20196;-70
2021/08/01 15:36:59;;;;;;;1.90;1.30;;;17.20;99.90;;;;;;6247170;28;20253;-69
2021/08/01 15:40:10;;;;;;;2.13;1.40;;;17.40;99.90;;;;;;6247214;28;20212;-70
2021/08/01 15:43:19;;;;;;;1.40;1.30;;;17.60;99.90;;;;;;6247832;28;20181;-69
2021/08/01 15:46:21;;;;;;;1.20;1.10;;;17.60;99.90;;;;;;6248052;28;20681;-69
2021/08/01 15:49:24;;;;;;;1.23;1.13;;;17.50;99.90;;;;;;6245695;28;20547;-69
2021/08/01 15:52:35;;;;;;;1.83;1.37;;;17.50;99.90;;;;;;6245553;28;20277;-70
2021/08/01 15:55:47;;;;;;;1.30;1.20;;;17.50;99.90;;;;;;6262017;28;20193;-70
2021/08/01 15:59:16;;;;;;;1.23;1.17;;;17.40;99.90;;;;;;6247163;28;20192;-69
2021/08/01 16:02:21;;;;;;;1.10;1.10;;;17.40;99.90;;;;;;6245468;28;20215;-69
2021/08/01 16:05:29;;;;;;;1.20;1.10;;;17.30;99.90;;;;;;6245699;28;20610;-69
2021/08/01 16:08:44;;;;;;;1.30;1.20;;;17.20;99.90;;;;;;6245502;28;20653;-68
2021/08/01 16:11:56;;;;;;;1.20;1.17;;;17.20;99.90;;;;;;6245684;28;20199;-69
2021/08/01 16:15:04;;;;;;;1.17;1.10;;;17.10;99.90;;;;;;6246374;28;20224;-70